Terminal Aerodrome Forecast
Issued by NWS

Home | Current Version | Previous Version | Text Only | Print | Product List | Glossary On
Versions: 1 2 3 4 5 6 7 8 9 10 11 12 13 14 15 16 17 18 19 20 21
000
FTUS43 KIND 190800 AAA
TAFLAF
TAF AMD
KLAF 190833Z 1909/2006 32003KT P6SM SCT020 BKN200
      TEMPO 1909/1911 BKN020
     FM191100 01002KT P6SM SCT025 BKN100
     FM191600 31003KT P6SM BKN025
     FM200300 00000KT P6SM SCT025 BKN100
      AMD LTD TO CLD VIS AND WIND TIL 191400=

USA.gov is the U.S. government's official web portal to all federal, state and local government web resources and services.